Time;durP1;ratioP1;P1;durP2;ratioP2;P2;SDS_P1;SDS_P2;PMS_P1;PMS_P2;Temp;Humidity;BMP_temperature;BMP_pressure;BME280_temperature;BME280_humidity;BME280_pressure;Samples;Min_cycle;Max_cycle;Signal;HPM_P1;HPM_P2
2022/08/11 00:04:25;;;;;;;6.30;2.97;;;;;18.50;101621.00;;;;10419867;28;20226;-81
2022/08/11 00:09:34;;;;;;;3.53;2.65;;;;;18.30;101617.00;;;;10403158;28;20237;-81
2022/08/11 00:14:43;;;;;;;5.93;3.08;;;;;18.20;101621.00;;;;10405051;28;20187;-82
2022/08/11 00:19:47;;;;;;;4.60;2.50;;;;;18.20;101619.00;;;;10420069;28;20198;-82
2022/08/11 00:25:10;;;;;;;7.00;2.88;;;;;18.10;101618.00;;;;10435758;28;20244;-81
2022/08/11 00:30:13;;;;;;;4.05;2.80;;;;;18.10;101612.00;;;;10419541;28;20205;-82
2022/08/11 00:35:16;;;;;;;3.80;2.97;;;;;17.90;101612.00;;;;10394435;28;20208;-79
2022/08/11 00:40:49;;;;;;;6.25;2.92;;;;;17.80;101613.00;;;;10443507;28;20566;-79
2022/08/11 00:46:13;;;;;;;3.35;3.05;;;;;17.70;101612.00;;;;10386944;28;20214;-78
2022/08/11 00:51:54;;;;;;;3.97;3.10;;;;;17.60;101628.00;;;;10394267;28;20697;-78
2022/08/11 00:57:35;;;;;;;5.83;3.30;;;;;17.50;101632.00;;;;10395036;28;20178;-78
2022/08/11 01:03:17;;;;;;;4.30;3.40;;;;;17.30;101625.00;;;;10425674;28;20296;-78
2022/08/11 01:08:56;;;;;;;8.10;3.23;;;;;17.10;101622.00;;;;10466122;28;20280;-78
2022/08/11 01:14:23;;;;;;;4.23;2.93;;;;;17.00;101634.00;;;;10399595;28;20229;-79
2022/08/11 01:20:18;;;;;;;3.53;3.03;;;;;17.00;101631.00;;;;10410354;28;20546;-78
2022/08/11 01:25:56;;;;;;;4.33;3.30;;;;;17.00;101641.00;;;;10424232;28;20296;-79
2022/08/11 01:31:55;;;;;;;4.07;3.27;;;;;16.90;101642.00;;;;10446412;28;20247;-78
2022/08/11 01:37:05;;;;;;;4.47;3.47;;;;;16.80;101639.00;;;;10424458;28;20290;-78
2022/08/11 01:48:14;;;;;;;3.97;3.47;;;;;16.60;101637.00;;;;10409189;28;20208;-79
2022/08/11 01:53:58;;;;;;;4.20;3.80;;;;;16.50;101634.00;;;;10424077;28;20226;-79
2022/08/11 01:59:13;;;;;;;5.03;3.50;;;;;16.40;101634.00;;;;10385402;28;20225;-79
2022/08/11 02:04:53;;;;;;;4.37;3.40;;;;;16.30;101631.00;;;;10435160;28;20265;-79
2022/08/11 02:15:50;;;;;;;6.73;3.70;;;;;16.30;101630.00;;;;10435745;28;20673;-79
2022/08/11 02:26:38;;;;;;;5.83;3.40;;;;;16.20;101633.00;;;;10480529;28;20250;-79
2022/08/11 02:37:32;;;;;;;4.43;3.60;;;;;16.00;101623.00;;;;10447244;28;20553;-79
2022/08/11 02:42:47;;;;;;;4.83;3.77;;;;;15.90;101628.00;;;;10432798;28;20197;-79
2022/08/11 02:53:29;;;;;;;6.27;3.60;;;;;15.70;101623.00;;;;10437953;28;20557;-79
2022/08/11 02:58:43;;;;;;;6.27;3.50;;;;;15.60;101615.00;;;;10424327;28;20190;-79
2022/08/11 03:04:02;;;;;;;4.13;3.73;;;;;15.50;101619.00;;;;10438022;28;20264;-79
2022/08/11 03:09:23;;;;;;;4.00;3.50;;;;;15.40;101620.00;;;;10388335;28;20248;-79
2022/08/11 03:20:29;;;;;;;5.57;4.23;;;;;15.30;101620.00;;;;10462315;28;20189;-79
2022/08/11 03:25:53;;;;;;;9.33;4.47;;;;;15.20;101616.00;;;;10446332;28;20237;-79
2022/08/11 03:31:19;;;;;;;4.40;4.00;;;;;15.00;101620.00;;;;10446977;28;20185;-79
2022/08/11 03:36:59;;;;;;;6.27;3.97;;;;;15.00;101621.00;;;;10438855;28;20210;-79
2022/08/11 03:43:09;;;;;;;6.50;4.07;;;;;14.90;101640.00;;;;10423090;28;20274;-79
2022/08/11 03:48:59;;;;;;;8.60;4.27;;;;;14.90;101625.00;;;;10392779;28;20317;-79
2022/08/11 03:54:33;;;;;;;5.83;4.40;;;;;14.90;101634.00;;;;10412384;28;20194;-79
2022/08/11 03:59:55;;;;;;;5.93;4.30;;;;;14.80;101632.00;;;;10398116;28;20190;-79
2022/08/11 04:05:15;;;;;;;5.47;4.23;;;;;14.70;101623.00;;;;10422066;28;20232;-79
2022/08/11 04:10:52;;;;;;;6.47;4.63;;;;;14.70;101625.00;;;;10419484;28;20194;-79
2022/08/11 04:16:18;;;;;;;6.63;4.37;;;;;14.70;101618.00;;;;10404107;28;20244;-79
2022/08/11 04:21:39;;;;;;;6.33;4.67;;;;;14.70;101615.00;;;;10426775;28;20196;-79
2022/08/11 04:27:23;;;;;;;6.63;4.53;;;;;14.70;101623.00;;;;10468165;28;20205;-79
2022/08/11 04:33:21;;;;;;;7.70;4.60;;;;;14.70;101636.00;;;;10285798;28;20579;-79
2022/08/11 04:38:57;;;;;;;4.63;4.17;;;;;14.70;101631.00;;;;10407903;28;20194;-79
2022/08/11 04:44:24;;;;;;;6.73;5.27;;;;;14.70;101642.00;;;;10424348;28;20198;-80
2022/08/11 05:07:03;;;;;;;6.13;4.97;;;;;15.10;101642.00;;;;10414258;28;20202;-79
2022/08/11 05:12:10;;;;;;;10.27;5.57;;;;;15.30;101634.00;;;;10405374;28;20194;-79
2022/08/11 06:01:05;;;;;;;10.18;5.03;;;;;19.00;101648.00;;;;10479698;28;20181;-79
2022/08/11 06:06:09;;;;;;;6.10;5.13;;;;;19.60;101647.00;;;;10446529;28;20221;-79
2022/08/11 06:11:12;;;;;;;10.10;4.93;;;;;20.40;101641.00;;;;10439886;28;20255;-80
2022/08/11 06:16:22;;;;;;;10.15;4.70;;;;;20.90;101643.00;;;;10447520;28;20966;-80
2022/08/11 06:21:24;;;;;;;8.98;4.45;;;;;21.40;101651.00;;;;10410946;28;20220;-80
2022/08/11 06:26:26;;;;;;;7.10;5.00;;;;;21.90;101654.00;;;;10463277;28;20251;-80
2022/08/11 06:31:30;;;;;;;7.55;5.63;;;;;22.20;101649.00;;;;10429438;28;20220;-80
2022/08/11 06:36:59;;;;;;;8.38;4.38;;;;;22.70;101651.00;;;;10431411;28;20244;-80
2022/08/11 06:42:08;;;;;;;8.35;5.07;;;;;23.00;101655.00;;;;10413407;28;20231;-80
2022/08/11 06:47:19;;;;;;;10.15;5.20;;;;;23.30;101662.00;;;;10406615;28;20206;-80
2022/08/11 06:52:30;;;;;;;5.35;4.55;;;;;23.70;101662.00;;;;10435492;28;20201;-80
2022/08/11 07:03:07;;;;;;;7.05;5.05;;;;;24.40;101668.00;;;;10419510;28;20842;-81
2022/08/11 07:30:17;;;;;;;9.57;4.57;;;;;26.40;101659.00;;;;10447722;28;20672;-80
2022/08/11 07:35:27;;;;;;;8.57;4.15;;;;;26.60;101658.00;;;;10465541;28;20676;-80
2022/08/11 07:40:30;;;;;;;6.47;3.40;;;;;26.60;101661.00;;;;10415482;28;20679;-80
2022/08/11 07:56:15;;;;;;;5.57;3.65;;;;;27.70;101661.00;;;;10414758;28;20208;-78
2022/08/11 08:17:47;;;;;;;10.18;3.20;;;;;29.70;101667.00;;;;10435466;28;20225;-78
2022/08/11 08:23:10;;;;;;;6.80;3.30;;;;;29.90;101666.00;;;;10453005;28;20193;-79
2022/08/11 08:28:16;;;;;;;4.85;2.85;;;;;30.20;101666.00;;;;10468674;28;20702;-78
2022/08/11 08:33:20;;;;;;;10.73;3.08;;;;;30.50;101671.00;;;;10400993;28;20202;-78
2022/08/11 08:38:23;;;;;;;5.85;3.17;;;;;30.90;101667.00;;;;10443251;28;20280;-78
2022/08/11 08:43:25;;;;;;;5.97;2.80;;;;;31.20;101667.00;;;;10395926;28;20201;-79
2022/08/11 08:48:30;;;;;;;6.93;3.08;;;;;31.60;101665.00;;;;10466240;28;20748;-79
2022/08/11 08:53:35;;;;;;;6.38;2.80;;;;;32.10;101670.00;;;;10439576;28;20201;-78
2022/08/11 08:58:40;;;;;;;5.78;2.70;;;;;32.30;101669.00;;;;10409967;28;20198;-78
2022/08/11 09:03:42;;;;;;;4.65;2.90;;;;;32.50;101667.00;;;;10422461;28;20282;-78
2022/08/11 09:09:07;;;;;;;4.75;2.90;;;;;32.80;101660.00;;;;10424024;28;20208;-78
2022/08/11 09:14:10;;;;;;;4.20;2.58;;;;;33.10;101651.00;;;;10456631;28;20198;-78
2022/08/11 09:19:18;;;;;;;5.70;2.83;;;;;33.30;101650.00;;;;10450472;28;20195;-79
2022/08/11 09:29:58;;;;;;;6.85;2.97;;;;;34.20;101640.00;;;;10366507;28;20228;-79
2022/08/11 09:35:02;;;;;;;8.45;2.65;;;;;34.40;101634.00;;;;10466220;28;20198;-79
2022/08/11 09:45:30;;;;;;;4.55;2.70;;;;;34.90;101627.00;;;;10437354;28;20206;-79
2022/08/11 09:50:41;;;;;;;6.65;2.90;;;;;35.00;101626.00;;;;10427660;28;20194;-80
2022/08/11 09:55:46;;;;;;;6.50;2.80;;;;;35.20;101613.00;;;;10433023;28;20204;-80
2022/08/11 10:00:50;;;;;;;6.05;2.42;;;;;35.50;101608.00;;;;10464912;28;20190;-80
2022/08/11 10:11:22;;;;;;;8.98;2.95;;;;;36.00;101605.00;;;;10453813;28;20251;-80
2022/08/11 10:16:27;;;;;;;3.92;2.50;;;;;35.90;101590.00;;;;10445498;28;20236;-80
2022/08/11 10:21:37;;;;;;;4.25;2.92;;;;;36.20;101586.00;;;;10437660;28;20227;-80
2022/08/11 10:37:21;;;;;;;4.03;2.72;;;;;37.10;101575.00;;;;10430687;28;20637;-79
2022/08/11 10:47:59;;;;;;;6.75;3.00;;;;;36.80;101567.00;;;;10441987;28;20191;-80
2022/08/11 11:03:45;;;;;;;6.90;2.80;;;;;37.50;101554.00;;;;10470446;28;20312;-80
2022/08/11 11:08:54;;;;;;;7.20;2.90;;;;;37.60;101562.00;;;;10437899;28;20194;-80
2022/08/11 11:19:28;;;;;;;3.10;2.80;;;;;37.60;101554.00;;;;10446860;28;20695;-80
2022/08/11 11:25:15;;;;;;;5.32;2.47;;;;;37.80;101544.00;;;;10462251;28;20204;-80
2022/08/11 11:30:17;;;;;;;5.50;2.70;;;;;38.00;101544.00;;;;10432649;28;20217;-80
2022/08/11 11:35:30;;;;;;;6.38;2.88;;;;;38.50;101534.00;;;;10403768;28;20645;-80
2022/08/11 11:40:33;;;;;;;4.35;2.17;;;;;38.40;101541.00;;;;10436020;28;20217;-80
2022/08/11 11:45:35;;;;;;;7.50;2.60;;;;;38.30;101536.00;;;;10428947;28;20197;-80
2022/08/11 11:50:38;;;;;;;5.78;2.20;;;;;38.30;101535.00;;;;10461706;28;20182;-80
2022/08/11 11:55:40;;;;;;;3.83;2.38;;;;;38.40;101525.00;;;;10444516;28;20205;-80
2022/08/11 12:06:04;;;;;;;9.10;2.45;;;;;38.40;101515.00;;;;10447553;28;20279;-80
2022/08/11 12:16:31;;;;;;;3.70;2.50;;;;;38.70;101505.00;;;;10466452;28;20217;-80
2022/08/11 12:27:19;;;;;;;4.68;2.47;;;;;39.00;101507.00;;;;10432309;28;20197;-80
2022/08/11 12:27:20;;;;;;;4.65;2.03;;;;;39.10;101504.00;;;;10443321;28;20247;-80
2022/08/11 12:32:42;;;;;;;3.50;1.88;;;;;38.90;101497.00;;;;10429752;28;20616;-80
2022/08/11 12:37:48;;;;;;;3.10;1.80;;;;;38.40;101488.00;;;;10434292;28;20210;-80
2022/08/11 12:54:16;;;;;;;2.78;1.83;;;;;38.60;101471.00;;;;10437021;28;20197;-80
2022/08/11 13:05:00;;;;;;;5.35;2.10;;;;;38.20;101475.00;;;;10440464;28;20225;-80
2022/08/11 13:10:05;;;;;;;3.63;2.30;;;;;38.30;101471.00;;;;10466986;28;20630;-80
2022/08/11 13:15:18;;;;;;;2.75;2.00;;;;;38.20;101468.00;;;;10428080;28;20201;-80
2022/08/11 13:20:22;;;;;;;1.90;1.80;;;;;38.60;101454.00;;;;10437313;28;20213;-79
2022/08/11 13:25:27;;;;;;;3.78;2.33;;;;;39.30;101456.00;;;;10479169;28;20204;-79
2022/08/11 13:35:53;;;;;;;3.08;1.70;;;;;40.70;101448.00;;;;10447152;28;20202;-80
2022/08/11 13:40:55;;;;;;;3.20;1.90;;;;;41.20;101440.00;;;;10455163;28;20241;-80
2022/08/11 13:46:19;;;;;;;4.43;2.03;;;;;41.70;101445.00;;;;10434240;28;20645;-80
2022/08/11 13:51:33;;;;;;;3.78;2.17;;;;;41.90;101440.00;;;;10482880;28;20200;-81
2022/08/11 13:56:42;;;;;;;4.65;2.22;;;;;42.50;101438.00;;;;10449967;28;20199;-81
2022/08/11 14:01:53;;;;;;;4.07;1.80;;;;;42.50;101433.00;;;;10419444;28;20241;-81
2022/08/11 14:07:21;;;;;;;3.45;2.17;;;;;42.70;101435.00;;;;10444927;28;20198;-80
2022/08/11 14:18:00;;;;;;;4.20;2.00;;;;;41.30;101429.00;;;;10424926;28;20214;-80
2022/08/11 14:23:03;;;;;;;2.42;2.00;;;;;43.00;101407.00;;;;10443877;28;20201;-80
2022/08/11 14:28:05;;;;;;;8.27;2.53;;;;;44.10;101398.00;;;;10449751;28;20186;-81
2022/08/11 14:33:29;;;;;;;2.83;2.00;;;;;44.20;101401.00;;;;10473009;28;20190;-81
2022/08/11 14:38:53;;;;;;;4.95;2.58;;;;;44.40;101393.00;;;;10452218;28;20206;-80
2022/08/11 14:49:17;;;;;;;7.38;2.40;;;;;44.90;101383.00;;;;10447975;28;20190;-80
2022/08/11 14:59:50;;;;;;;4.88;2.60;;;;;45.10;101376.00;;;;10429068;28;20240;-80
2022/08/11 15:04:54;;;;;;;4.28;2.60;;;;;45.20;101366.00;;;;10443868;28;20308;-80
2022/08/11 15:09:59;;;;;;;4.45;2.15;;;;;44.90;101368.00;;;;10449818;28;20186;-80
2022/08/11 15:37:29;;;;;;;4.32;2.65;;;;;35.50;101345.00;;;;10439537;28;20601;-79
2022/08/11 15:48:05;;;;;;;4.05;2.40;;;;;37.00;101331.00;;;;10431223;28;20181;-79
2022/08/11 15:53:24;;;;;;;4.05;2.42;;;;;40.70;101327.00;;;;10457947;28;20190;-79
2022/08/11 16:04:19;;;;;;;5.15;2.10;;;;;34.40;101333.00;;;;10468320;28;20679;-80
2022/08/11 16:09:26;;;;;;;6.03;2.40;;;;;33.60;101333.00;;;;10409688;28;20229;-79
2022/08/11 16:20:01;;;;;;;3.80;2.00;;;;;32.80;101318.00;;;;10427412;28;20221;-79
2022/08/11 16:25:07;;;;;;;8.73;2.10;;;;;32.60;101317.00;;;;10442733;28;20268;-79
2022/08/11 16:30:30;;;;;;;4.35;2.38;;;;;32.40;101310.00;;;;10434795;28;20182;-79
2022/08/11 16:40:59;;;;;;;4.63;2.40;;;;;32.00;101306.00;;;;10461114;28;20698;-79
2022/08/11 16:51:25;;;;;;;4.53;2.38;;;;;31.70;101322.00;;;;10460838;28;20186;-78
2022/08/11 16:56:33;;;;;;;4.05;2.20;;;;;31.60;101309.00;;;;10478970;28;20192;-78
2022/08/11 17:01:35;;;;;;;2.10;1.80;;;;;31.50;101308.00;;;;10430152;28;20217;-78
2022/08/11 17:17:47;;;;;;;2.63;1.90;;;;;31.20;101302.00;;;;10443107;28;20221;-78
2022/08/11 17:28:16;;;;;;;4.45;2.33;;;;;30.90;101304.00;;;;10478072;28;20185;-78
2022/08/11 17:38:42;;;;;;;9.13;3.00;;;;;30.70;101296.00;;;;10480740;28;20213;-78
2022/08/11 17:49:08;;;;;;;3.63;2.63;;;;;30.50;101294.00;;;;10463561;28;20664;-78
2022/08/11 17:59:51;;;;;;;5.20;2.60;;;;;30.20;101301.00;;;;10454218;28;20244;-78
2022/08/11 18:04:56;;;;;;;2.80;2.42;;;;;30.00;101303.00;;;;10422118;28;20215;-78
